createdAt,value
2023-02-19T00:01:45.472Z,100852.00
2023-02-19T00:04:13.909Z,100855.94
2023-02-19T00:06:41.722Z,100851.94
2023-02-19T00:09:10.831Z,100854.47
2023-02-19T00:11:38.232Z,100850.97
2023-02-19T00:14:05.615Z,100852.97
2023-02-19T00:16:35.358Z,100850.25
2023-02-19T00:19:03.852Z,100849.22
2023-02-19T00:21:31.216Z,100849.97
2023-02-19T00:24:01.037Z,100846.59
2023-02-19T00:26:28.004Z,100840.59
2023-02-19T00:28:57.533Z,100844.06
2023-02-19T00:31:29.910Z,100835.69
2023-02-19T00:33:59.641Z,100836.22
2023-02-19T00:36:27.979Z,100834.16
2023-02-19T00:38:55.434Z,100829.44
2023-02-19T00:41:23.283Z,100828.91
2023-02-19T00:43:57.214Z,100833.94
2023-02-19T00:46:26.927Z,100837.22
2023-02-19T00:48:54.508Z,100836.34
2023-02-19T00:51:23.833Z,100829.97
2023-02-19T00:53:50.603Z,100825.00
2023-02-19T00:56:17.980Z,100821.75
2023-02-19T00:58:44.913Z,100812.34
2023-02-19T01:01:12.138Z,100812.97
2023-02-19T01:03:39.762Z,100816.44
2023-02-19T01:06:08.552Z,100814.88
2023-02-19T01:08:35.688Z,100810.31
2023-02-19T01:11:03.539Z,100805.47
2023-02-19T01:13:30.444Z,100800.28
2023-02-19T01:16:04.674Z,100795.38
2023-02-19T01:18:32.189Z,100793.38
2023-02-19T01:20:58.793Z,100778.47
2023-02-19T01:23:25.655Z,100757.97
2023-02-19T01:25:52.226Z,100746.78
2023-02-19T01:28:18.828Z,100748.13
2023-02-19T01:30:45.397Z,100758.22
2023-02-19T01:33:11.976Z,100768.66
2023-02-19T01:35:39.571Z,100768.78
2023-02-19T01:38:08.342Z,100758.41
2023-02-19T01:40:35.291Z,100762.47
2023-02-19T01:43:03.670Z,100751.53
2023-02-19T01:45:32.388Z,100750.81
2023-02-19T01:48:05.261Z,100755.94
2023-02-19T01:50:44.453Z,100751.06
2023-02-19T01:53:13.349Z,100749.31
2023-02-19T01:55:41.025Z,100747.25
2023-02-19T01:58:09.197Z,100751.91
2023-02-19T02:00:37.050Z,100742.59
2023-02-19T02:03:04.547Z,100737.53
2023-02-19T02:05:46.275Z,100735.69
2023-02-19T02:08:33.581Z,100731.84
2023-02-19T02:11:00.847Z,100724.06
2023-02-19T02:13:27.795Z,100727.81
2023-02-19T02:16:14.663Z,100732.72
2023-02-19T02:19:03.863Z,100723.38
2023-02-19T02:21:56.531Z,100730.31
2023-02-19T02:24:56.595Z,100728.06
2023-02-19T02:27:23.161Z,100730.44
2023-02-19T02:30:04.734Z,100725.97
2023-02-19T02:32:54.882Z,100730.66
2023-02-19T02:35:31.476Z,100728.31
2023-02-19T02:38:02.920Z,100711.97
2023-02-19T02:40:30.009Z,100710.03
2023-02-19T02:43:00.855Z,100710.63
2023-02-19T02:45:34.937Z,100706.59
2023-02-19T02:48:32.605Z,100716.56
2023-02-19T02:51:14.410Z,100710.25
2023-02-19T02:54:15.677Z,100719.31
2023-02-19T02:56:44.153Z,100712.53
2023-02-19T02:59:13.720Z,100713.31
2023-02-19T03:02:05.900Z,100715.31
2023-02-19T03:05:11.968Z,100718.72
2023-02-19T03:07:54.331Z,100723.22
2023-02-19T03:10:26.366Z,100719.25
2023-02-19T03:13:15.501Z,100721.84
2023-02-19T03:16:06.649Z,100723.00
2023-02-19T03:19:03.698Z,100726.53
2023-02-19T03:21:34.254Z,100726.63
2023-02-19T03:24:20.038Z,100735.50
2023-02-19T03:26:54.000Z,100735.81
2023-02-19T03:29:25.976Z,100729.38
2023-02-19T03:32:00.370Z,100728.72
2023-02-19T03:34:34.808Z,100735.78
2023-02-19T03:37:11.029Z,100728.56
2023-02-19T03:39:44.421Z,100730.38
2023-02-19T03:42:14.065Z,100742.13
2023-02-19T03:45:11.322Z,100738.63
2023-02-19T03:47:49.987Z,100746.34
2023-02-19T03:50:36.533Z,100759.63
2023-02-19T03:53:18.340Z,100750.63
2023-02-19T03:56:02.065Z,100760.88
2023-02-19T03:58:36.164Z,100760.91
2023-02-19T04:01:15.365Z,100756.94
2023-02-19T04:04:01.496Z,100765.94
2023-02-19T04:06:30.395Z,100769.78
2023-02-19T04:09:00.515Z,100770.28
2023-02-19T04:11:29.130Z,100767.97
2023-02-19T04:14:03.154Z,100774.44
2023-02-19T04:16:30.910Z,100778.16
2023-02-19T04:19:03.915Z,100776.19
2023-02-19T04:21:32.511Z,100791.78
2023-02-19T04:24:04.053Z,100793.03
2023-02-19T04:26:32.479Z,100794.00
2023-02-19T04:28:59.273Z,100805.06
2023-02-19T04:31:28.160Z,100809.72
2023-02-19T04:33:54.809Z,100812.97
2023-02-19T04:36:21.375Z,100811.38
2023-02-19T04:38:48.004Z,100813.34
2023-02-19T04:41:14.644Z,100809.81
2023-02-19T04:43:41.197Z,100810.75
2023-02-19T04:46:07.878Z,100808.44
2023-02-19T04:48:34.491Z,100813.44
2023-02-19T04:51:05.586Z,100806.63
2023-02-19T04:53:32.155Z,100816.19
2023-02-19T04:56:06.435Z,100825.28
2023-02-19T04:58:33.148Z,100816.59
2023-02-19T05:00:59.725Z,100823.44
2023-02-19T05:03:26.335Z,100813.97
2023-02-19T05:05:52.908Z,100816.84
2023-02-19T05:08:19.565Z,100821.88
2023-02-19T05:10:46.160Z,100821.88
2023-02-19T05:13:13.966Z,100818.22
2023-02-19T05:15:40.621Z,100822.72
2023-02-19T05:18:07.229Z,100818.53
2023-02-19T05:20:33.808Z,100824.50
2023-02-19T05:23:00.360Z,100813.78
2023-02-19T05:25:26.961Z,100818.59
2023-02-19T05:28:13.605Z,100820.44
2023-02-19T05:30:40.189Z,100829.09
2023-02-19T05:33:06.800Z,100834.38
2023-02-19T05:35:33.367Z,100830.81
2023-02-19T05:37:59.928Z,100834.31
2023-02-19T05:40:26.593Z,100824.06
2023-02-19T05:42:53.163Z,100825.66
2023-02-19T05:45:19.785Z,100831.03
2023-02-19T05:47:46.385Z,100831.03
2023-02-19T05:50:12.965Z,100831.91
2023-02-19T05:52:39.550Z,100835.16
2023-02-19T05:55:06.509Z,100839.53
2023-02-19T05:57:33.123Z,100830.88
2023-02-19T05:59:59.679Z,100841.25
2023-02-19T06:02:26.266Z,100846.66
2023-02-19T06:04:52.894Z,100851.44
2023-02-19T06:07:19.471Z,100859.13
2023-02-19T06:09:46.093Z,100846.66
2023-02-19T06:12:12.648Z,100848.41
2023-02-19T06:14:39.217Z,100859.53
2023-02-19T06:17:05.837Z,100864.44
2023-02-19T06:19:32.388Z,100858.75
2023-02-19T06:21:59.020Z,100859.63
2023-02-19T06:24:25.623Z,100850.38
2023-02-19T06:26:52.260Z,100859.88
2023-02-19T06:29:18.879Z,100866.97
2023-02-19T06:31:45.621Z,100868.66
2023-02-19T06:34:12.351Z,100867.34
2023-02-19T06:36:38.981Z,100864.16
2023-02-19T06:39:06.213Z,100865.38
2023-02-19T06:41:33.279Z,100879.88
2023-02-19T06:43:59.896Z,100891.81
2023-02-19T06:46:26.569Z,100899.16
2023-02-19T06:48:53.154Z,100911.03
2023-02-19T06:51:23.790Z,100915.06
2023-02-19T06:53:50.582Z,100933.34
2023-02-19T06:56:23.453Z,100935.88
2023-02-19T06:58:50.151Z,100934.63
2023-02-19T07:01:16.956Z,100948.31
2023-02-19T07:03:43.624Z,100951.19
2023-02-19T07:06:10.312Z,100945.19
2023-02-19T07:08:36.947Z,100944.97
2023-02-19T07:11:03.763Z,100951.94
2023-02-19T07:13:30.528Z,100952.94
2023-02-19T07:16:03.321Z,100958.06
2023-02-19T07:18:31.204Z,100964.22
2023-02-19T07:21:09.292Z,100973.47
2023-02-19T07:23:36.473Z,100972.09
2023-02-19T07:26:03.561Z,100969.53
2023-02-19T07:28:30.157Z,100980.78
2023-02-19T07:31:04.425Z,100975.34
2023-02-19T07:33:31.209Z,100980.47
2023-02-19T07:35:57.822Z,100983.31
2023-02-19T07:38:25.413Z,100992.53
2023-02-19T07:40:52.358Z,100990.41
2023-02-19T07:43:19.379Z,100983.03
2023-02-19T07:45:46.199Z,100993.91
2023-02-19T07:48:13.543Z,100995.69
2023-02-19T07:50:40.174Z,101000.81
2023-02-19T07:53:06.738Z,101007.41
2023-02-19T07:55:33.750Z,101023.94
2023-02-19T07:58:00.899Z,101020.00
2023-02-19T08:00:27.913Z,101026.00
2023-02-19T08:03:00.577Z,101030.56
2023-02-19T08:05:36.972Z,101034.09
2023-02-19T08:08:06.425Z,101048.84
2023-02-19T08:10:51.934Z,101052.78
2023-02-19T08:13:25.464Z,101057.97
2023-02-19T08:15:52.135Z,101057.19
2023-02-19T08:18:21.867Z,101068.72
2023-02-19T08:20:48.805Z,101082.16
2023-02-19T08:23:15.490Z,101083.06
2023-02-19T08:25:43.024Z,101096.31
2023-02-19T08:28:11.220Z,101095.22
2023-02-19T08:30:39.634Z,101093.47
2023-02-19T08:33:08.119Z,101091.78
2023-02-19T08:35:36.651Z,101108.31
2023-02-19T08:38:06.125Z,101117.53
2023-02-19T08:40:34.053Z,101121.94
2023-02-19T08:43:04.605Z,101130.00
2023-02-19T08:45:31.490Z,101124.19
2023-02-19T08:47:58.503Z,101131.03
2023-02-19T08:50:25.707Z,101143.00
2023-02-19T08:52:52.624Z,101143.91
2023-02-19T08:55:19.702Z,101151.03
2023-02-19T08:57:46.523Z,101148.25
2023-02-19T09:00:13.964Z,101147.44
2023-02-19T09:02:40.541Z,101149.44
2023-02-19T09:05:07.323Z,101157.63
2023-02-19T09:07:33.912Z,101161.28
2023-02-19T09:10:00.938Z,101157.56
2023-02-19T09:12:27.663Z,101173.56
2023-02-19T09:14:55.438Z,101172.72
2023-02-19T09:17:22.058Z,101176.41
2023-02-19T09:19:50.821Z,101177.72
2023-02-19T09:22:17.579Z,101177.94
2023-02-19T09:24:44.660Z,101181.84
2023-02-19T09:27:19.708Z,101179.75
2023-02-19T09:29:47.027Z,101187.13
2023-02-19T09:32:14.282Z,101193.97
2023-02-19T09:34:41.291Z,101193.66
2023-02-19T09:37:08.481Z,101205.41
2023-02-19T09:39:35.712Z,101204.84
2023-02-19T09:42:15.407Z,101207.91
2023-02-19T09:44:44.781Z,101216.84
2023-02-19T09:47:23.623Z,101221.91
2023-02-19T09:49:55.760Z,101224.59
2023-02-19T09:52:35.477Z,101223.19
2023-02-19T09:55:24.170Z,101222.59
2023-02-19T09:57:51.965Z,101231.88
2023-02-19T10:00:27.348Z,101233.00
2023-02-19T10:03:13.327Z,101231.88
2023-02-19T10:05:40.314Z,101246.53
2023-02-19T10:08:15.674Z,101241.91
2023-02-19T10:10:44.444Z,101241.72
2023-02-19T10:13:21.954Z,101248.69
2023-02-19T10:16:01.704Z,101255.09
2023-02-19T10:18:38.647Z,101263.38
2023-02-19T10:21:05.919Z,101265.94
2023-02-19T10:23:32.769Z,101285.13
2023-02-19T10:26:00.819Z,101271.94
2023-02-19T10:28:31.348Z,101291.09
2023-02-19T10:31:00.298Z,101289.16
2023-02-19T10:33:27.510Z,101287.94
2023-02-19T10:36:06.314Z,101293.78
2023-02-19T10:38:37.007Z,101302.00
2023-02-19T10:41:14.209Z,101302.56
2023-02-19T10:43:45.729Z,101296.44
2023-02-19T10:46:34.758Z,101311.00
2023-02-19T10:49:05.415Z,101305.72
2023-02-19T10:51:40.657Z,101311.03
2023-02-19T10:54:16.392Z,101317.44
2023-02-19T10:56:43.140Z,101322.84
2023-02-19T10:59:24.641Z,101316.41
2023-02-19T11:02:02.543Z,101332.81
2023-02-19T11:04:34.177Z,101335.34
2023-02-19T11:07:18.743Z,101348.88
2023-02-19T11:09:49.691Z,101348.19
2023-02-19T11:12:33.501Z,101352.66
2023-02-19T11:15:21.151Z,101360.25
2023-02-19T11:18:05.778Z,101358.47
2023-02-19T11:20:32.883Z,101365.31
2023-02-19T11:23:15.174Z,101375.44
2023-02-19T11:25:47.446Z,101371.63
2023-02-19T11:28:16.873Z,101361.47
2023-02-19T11:30:45.213Z,101364.97
2023-02-19T11:33:19.785Z,101359.81
2023-02-19T11:35:48.274Z,101362.25
2023-02-19T11:38:17.793Z,101366.03
2023-02-19T11:41:11.297Z,101379.56
2023-02-19T11:43:53.632Z,101379.47
2023-02-19T11:46:31.598Z,101360.88
2023-02-19T11:49:27.543Z,101374.53
2023-02-19T11:51:56.838Z,101366.97
2023-02-19T11:54:59.754Z,101369.09
2023-02-19T11:57:26.870Z,101364.84
2023-02-19T12:00:21.940Z,101361.97
2023-02-19T12:03:00.285Z,101362.78
2023-02-19T12:05:36.280Z,101367.50
2023-02-19T12:08:10.856Z,101380.97
2023-02-19T12:10:52.542Z,101387.72
2023-02-19T12:13:37.054Z,101379.91
2023-02-19T12:16:15.821Z,101384.81
2023-02-19T12:19:22.716Z,101385.31
2023-02-19T12:22:08.097Z,101377.09
2023-02-19T12:25:05.837Z,101386.13
2023-02-19T12:28:17.186Z,101396.47
2023-02-19T12:31:03.837Z,101397.63
2023-02-19T12:33:39.817Z,101397.09
2023-02-19T12:36:27.269Z,101408.38
2023-02-19T12:39:15.732Z,101408.03
2023-02-19T12:42:02.622Z,101416.81
2023-02-19T12:44:45.116Z,101403.69
2023-02-19T12:47:18.550Z,101408.06
2023-02-19T12:49:58.607Z,101404.84
2023-02-19T12:52:36.696Z,101414.44
2023-02-19T12:55:25.958Z,101427.50
2023-02-19T12:57:54.811Z,101413.06
2023-02-19T13:00:35.643Z,101424.81
2023-02-19T13:03:21.124Z,101431.03
2023-02-19T13:06:04.788Z,101451.44
2023-02-19T13:09:06.858Z,101434.75
2023-02-19T13:11:46.994Z,101434.06
2023-02-19T13:14:36.501Z,101441.84
2023-02-19T13:17:18.434Z,101448.63
2023-02-19T13:19:48.872Z,101457.59
2023-02-19T13:22:45.238Z,101455.75
2023-02-19T13:25:14.515Z,101454.31
2023-02-19T13:28:20.901Z,101445.84
2023-02-19T13:31:03.333Z,101439.03
2023-02-19T13:33:38.344Z,101456.06
2023-02-19T13:36:11.380Z,101456.06
2023-02-19T13:38:49.418Z,101445.84
2023-02-19T13:41:32.432Z,101451.25
2023-02-19T13:44:05.846Z,101449.56
2023-02-19T13:46:40.656Z,101448.28
2023-02-19T13:49:40.978Z,101451.44
2023-02-19T13:52:28.613Z,101448.09
2023-02-19T13:55:32.672Z,101466.78
2023-02-19T13:58:33.489Z,101463.22
2023-02-19T14:01:04.532Z,101456.91
2023-02-19T14:03:46.503Z,101466.47
2023-02-19T14:06:14.137Z,101481.47
2023-02-19T14:08:58.469Z,101481.28
2023-02-19T14:11:44.129Z,101489.50
2023-02-19T14:14:24.747Z,101484.19
2023-02-19T14:17:01.245Z,101486.03
2023-02-19T14:19:43.004Z,101496.66
2023-02-19T14:22:56.931Z,101492.38
2023-02-19T14:25:29.483Z,101494.41
2023-02-19T14:28:05.295Z,101490.72
2023-02-19T14:30:34.810Z,101494.41
2023-02-19T14:33:10.751Z,101496.28
2023-02-19T14:35:42.705Z,101493.22
2023-02-19T14:38:21.662Z,101493.47
2023-02-19T14:40:50.624Z,101488.41
2023-02-19T14:43:20.771Z,101488.31
2023-02-19T14:45:56.119Z,101493.91
2023-02-19T14:48:27.882Z,101496.72
2023-02-19T14:51:00.487Z,101498.84
2023-02-19T14:53:29.589Z,101500.75
2023-02-19T14:55:58.363Z,101502.03
2023-02-19T14:58:31.692Z,101511.78
2023-02-19T15:00:58.450Z,101512.13
2023-02-19T15:03:31.158Z,101521.56
2023-02-19T15:06:19.637Z,101518.16
2023-02-19T15:08:53.485Z,101528.66
2023-02-19T15:11:24.972Z,101510.19
2023-02-19T15:13:55.910Z,101527.78
2023-02-19T15:16:25.846Z,101522.56
2023-02-19T15:18:54.500Z,101521.25
2023-02-19T15:21:30.619Z,101520.59
2023-02-19T15:24:00.814Z,101525.78
2023-02-19T15:26:43.014Z,101525.84
2023-02-19T15:29:21.211Z,101528.28
2023-02-19T15:31:56.177Z,101528.56
2023-02-19T15:34:28.324Z,101519.47
2023-02-19T15:36:59.265Z,101519.47
2023-02-19T15:39:34.815Z,101524.72
2023-02-19T15:42:03.848Z,101525.44
2023-02-19T15:44:56.486Z,101528.47
2023-02-19T15:47:33.377Z,101535.97
2023-02-19T15:50:15.240Z,101531.41
2023-02-19T15:52:55.284Z,101551.84
2023-02-19T15:55:36.204Z,101551.00
2023-02-19T15:58:30.259Z,101543.50
2023-02-19T16:01:08.266Z,101541.16
2023-02-19T16:03:35.910Z,101551.56
2023-02-19T16:06:14.980Z,101560.97
2023-02-19T16:08:47.076Z,101567.78
2023-02-19T16:11:47.729Z,101570.56
2023-02-19T16:14:33.612Z,101574.16
2023-02-19T16:17:11.839Z,101580.72
2023-02-19T16:19:50.950Z,101576.25
2023-02-19T16:22:24.449Z,101578.03
2023-02-19T16:25:05.520Z,101585.81
2023-02-19T16:27:41.342Z,101595.16
2023-02-19T16:30:30.904Z,101602.50
2023-02-19T16:33:34.720Z,101601.94
2023-02-19T16:36:37.985Z,101599.22
2023-02-19T16:39:07.893Z,101604.56
2023-02-19T16:41:56.432Z,101606.63
2023-02-19T16:44:27.460Z,101610.78
2023-02-19T16:47:14.072Z,101614.41
2023-02-19T16:49:42.517Z,101608.09
2023-02-19T16:52:14.352Z,101619.72
2023-02-19T16:54:41.041Z,101610.66
2023-02-19T16:57:07.631Z,101610.06
2023-02-19T16:59:34.355Z,101608.66
2023-02-19T17:02:04.351Z,101614.09
2023-02-19T17:04:30.991Z,101616.06
2023-02-19T17:06:58.198Z,101621.41
2023-02-19T17:09:24.857Z,101622.41
2023-02-19T17:11:51.460Z,101614.91
2023-02-19T17:14:18.095Z,101614.22
2023-02-19T17:16:44.726Z,101618.69
2023-02-19T17:19:19.901Z,101617.09
2023-02-19T17:21:47.170Z,101615.56
2023-02-19T17:24:14.403Z,101614.81
2023-02-19T17:26:41.442Z,101604.63
2023-02-19T17:29:14.055Z,101621.88
2023-02-19T17:31:40.902Z,101629.78
2023-02-19T17:34:07.606Z,101632.44
2023-02-19T17:36:34.500Z,101641.03
2023-02-19T17:39:03.081Z,101640.25
2023-02-19T17:41:29.912Z,101636.00
2023-02-19T17:43:56.568Z,101634.38
2023-02-19T17:46:27.685Z,101631.03
2023-02-19T17:48:55.067Z,101641.38
2023-02-19T17:51:22.620Z,101645.88
2023-02-19T17:53:49.533Z,101640.69
2023-02-19T17:56:19.705Z,101639.09
2023-02-19T17:58:46.491Z,101643.47
2023-02-19T18:01:14.337Z,101639.25
2023-02-19T18:03:41.175Z,101639.22
2023-02-19T18:06:08.501Z,101642.63
2023-02-19T18:08:35.153Z,101649.50
2023-02-19T18:11:01.729Z,101650.34
2023-02-19T18:13:28.273Z,101653.78
2023-02-19T18:15:54.895Z,101655.56
2023-02-19T18:18:23.311Z,101663.31
2023-02-19T18:20:50.289Z,101667.63
2023-02-19T18:23:17.331Z,101673.69
2023-02-19T18:25:43.955Z,101672.88
2023-02-19T18:28:10.909Z,101675.44
2023-02-19T18:30:37.640Z,101674.69
2023-02-19T18:33:04.252Z,101679.00
2023-02-19T18:35:30.924Z,101674.78
2023-02-19T18:37:57.618Z,101679.09
2023-02-19T18:40:28.462Z,101679.91
2023-02-19T18:42:56.113Z,101685.09
2023-02-19T18:45:22.733Z,101685.09
2023-02-19T18:47:50.101Z,101683.44
2023-02-19T18:50:17.910Z,101681.78
2023-02-19T18:52:44.733Z,101685.28
2023-02-19T18:55:13.263Z,101692.16
2023-02-19T18:57:39.861Z,101688.69
2023-02-19T19:00:07.679Z,101701.63
2023-02-19T19:02:48.350Z,101695.63
2023-02-19T19:05:23.451Z,101690.53
2023-02-19T19:07:55.268Z,101690.53
2023-02-19T19:10:22.767Z,101692.28
2023-02-19T19:12:49.482Z,101681.06
2023-02-19T19:15:18.467Z,101688.88
2023-02-19T19:17:45.928Z,101687.22
2023-02-19T19:20:12.798Z,101678.66
2023-02-19T19:22:39.640Z,101682.97
2023-02-19T19:25:06.647Z,101683.88
2023-02-19T19:27:33.237Z,101685.59
2023-02-19T19:29:59.865Z,101685.63
2023-02-19T19:32:26.519Z,101685.59
2023-02-19T19:34:53.086Z,101681.38
2023-02-19T19:37:19.687Z,101683.06
2023-02-19T19:39:46.353Z,101679.63
2023-02-19T19:42:12.943Z,101673.56
2023-02-19T19:44:39.710Z,101677.84
2023-02-19T19:47:06.300Z,101677.88
2023-02-19T19:49:33.428Z,101681.34
2023-02-19T19:52:01.208Z,101677.97
2023-02-19T19:54:28.735Z,101679.72
2023-02-19T19:56:55.548Z,101678.81
2023-02-19T19:59:23.126Z,101676.31
2023-02-19T20:01:55.161Z,101672.91
2023-02-19T20:04:23.688Z,101672.94
2023-02-19T20:06:50.573Z,101672.13
2023-02-19T20:09:18.107Z,101668.72
2023-02-19T20:11:48.649Z,101671.31
2023-02-19T20:14:16.585Z,101673.88
2023-02-19T20:16:44.839Z,101688.50
2023-02-19T20:19:12.869Z,101684.19
2023-02-19T20:21:39.464Z,101689.41
2023-02-19T20:24:06.397Z,101697.19
2023-02-19T20:26:33.022Z,101696.34
2023-02-19T20:28:59.610Z,101696.41
2023-02-19T20:31:26.533Z,101698.16
2023-02-19T20:33:53.266Z,101700.75
2023-02-19T20:36:20.205Z,101703.34
2023-02-19T20:38:49.371Z,101693.91
2023-02-19T20:41:16.045Z,101699.09
2023-02-19T20:43:42.638Z,101699.09
2023-02-19T20:46:09.511Z,101696.53
2023-02-19T20:48:36.200Z,101697.41
2023-02-19T20:51:03.362Z,101705.94
2023-02-19T20:53:30.743Z,101707.66
2023-02-19T20:55:57.893Z,101695.69
2023-02-19T20:58:25.366Z,101701.69
2023-02-19T21:00:54.157Z,101697.38
2023-02-19T21:03:21.467Z,101696.50
2023-02-19T21:05:48.163Z,101702.50
2023-02-19T21:08:17.270Z,101701.69
2023-02-19T21:10:45.855Z,101700.84
2023-02-19T21:13:13.056Z,101693.13
2023-02-19T21:15:39.871Z,101694.03
2023-02-19T21:18:06.761Z,101698.25
2023-02-19T21:20:33.563Z,101696.53
2023-02-19T21:23:00.796Z,101703.44
2023-02-19T21:25:27.715Z,101691.44
2023-02-19T21:27:54.413Z,101689.72
2023-02-19T21:30:21.103Z,101683.72
2023-02-19T21:32:47.716Z,101681.16
2023-02-19T21:35:14.390Z,101672.59
2023-02-19T21:37:44.450Z,101668.34
2023-02-19T21:40:12.555Z,101666.63
2023-02-19T21:42:39.325Z,101661.47
2023-02-19T21:45:06.430Z,101667.47
2023-02-19T21:47:33.012Z,101667.38
2023-02-19T21:49:59.576Z,101655.38
2023-02-19T21:52:27.027Z,101656.16
2023-02-19T21:54:53.648Z,101651.84
2023-02-19T21:57:20.227Z,101653.53
2023-02-19T21:59:46.979Z,101656.03
2023-02-19T22:02:13.674Z,101652.56
2023-02-19T22:04:41.122Z,101653.38
2023-02-19T22:07:07.738Z,101652.50
2023-02-19T22:09:34.308Z,101650.72
2023-02-19T22:12:00.864Z,101638.72
2023-02-19T22:14:27.505Z,101642.97
2023-02-19T22:16:54.104Z,101632.63
2023-02-19T22:19:20.801Z,101629.16
2023-02-19T22:21:47.558Z,101625.72
2023-02-19T22:24:19.483Z,101613.72
2023-02-19T22:26:46.602Z,101612.88
2023-02-19T22:29:15.118Z,101614.59
2023-02-19T22:31:41.838Z,101612.06
2023-02-19T22:34:09.153Z,101607.00
2023-02-19T22:36:39.076Z,101624.19
2023-02-19T22:39:07.657Z,101617.31
2023-02-19T22:41:35.046Z,101623.38
2023-02-19T22:44:01.974Z,101622.53
2023-02-19T22:46:30.533Z,101620.00
2023-02-19T22:48:58.341Z,101632.03
2023-02-19T22:51:25.451Z,101630.31
2023-02-19T22:53:54.470Z,101638.94
2023-02-19T22:56:23.421Z,101637.19
2023-02-19T22:58:50.735Z,101644.13
2023-02-19T23:01:17.458Z,101640.69
2023-02-19T23:03:54.618Z,101642.44
2023-02-19T23:06:27.024Z,101632.13
2023-02-19T23:08:54.676Z,101627.84
2023-02-19T23:11:27.110Z,101638.19
2023-02-19T23:13:53.557Z,101635.63
2023-02-19T23:16:20.785Z,101629.66
2023-02-19T23:18:47.456Z,101629.69
2023-02-19T23:21:14.402Z,101623.69
2023-02-19T23:23:42.600Z,101624.59
2023-02-19T23:26:09.971Z,101632.31
2023-02-19T23:28:36.874Z,101631.50
2023-02-19T23:31:03.634Z,101629.78
2023-02-19T23:33:30.240Z,101629.81
2023-02-19T23:35:56.827Z,101623.84
2023-02-19T23:38:23.499Z,101619.53
2023-02-19T23:40:50.115Z,101608.34
2023-02-19T23:43:16.715Z,101611.81
2023-02-19T23:45:43.436Z,101604.09
2023-02-19T23:48:10.457Z,101606.66
2023-02-19T23:50:37.002Z,101598.97
2023-02-19T23:53:03.999Z,101599.81
2023-02-19T23:55:30.547Z,101597.22
2023-02-19T23:57:57.198Z,101602.38
